createdAt,value
2022-11-25T00:01:32.936Z,83.31
2022-11-25T00:04:01.552Z,82.94
2022-11-25T00:06:34.527Z,83.24
2022-11-25T00:09:11.928Z,82.19
2022-11-25T00:11:41.603Z,82.66
2022-11-25T00:14:15.084Z,80.60
2022-11-25T00:16:48.120Z,80.46
2022-11-25T00:19:17.451Z,81.40
2022-11-25T00:21:45.674Z,80.71
2022-11-25T00:24:15.723Z,80.94
2022-11-25T00:26:44.004Z,79.66
2022-11-25T00:29:13.232Z,80.20
2022-11-25T00:31:41.794Z,81.44
2022-11-25T00:34:13.520Z,80.25
2022-11-25T00:36:41.481Z,80.54
2022-11-25T00:39:17.745Z,82.45
2022-11-25T00:42:04.976Z,82.60
2022-11-25T00:44:36.253Z,80.88
2022-11-25T00:47:18.781Z,80.53
2022-11-25T00:49:51.942Z,82.33
2022-11-25T00:52:24.435Z,82.62
2022-11-25T00:54:53.060Z,83.31
2022-11-25T00:57:23.024Z,82.32
2022-11-25T00:59:50.963Z,80.62
2022-11-25T01:02:22.614Z,81.70
2022-11-25T01:04:50.462Z,83.20
2022-11-25T01:07:18.626Z,82.53
2022-11-25T01:09:48.173Z,82.06
2022-11-25T01:12:16.044Z,81.60
2022-11-25T01:14:43.904Z,82.94
2022-11-25T01:17:14.861Z,82.87
2022-11-25T01:19:42.663Z,81.58
2022-11-25T01:22:10.582Z,83.58
2022-11-25T01:24:39.051Z,81.68
2022-11-25T01:27:07.045Z,81.79
2022-11-25T01:29:34.849Z,82.08
2022-11-25T01:32:03.033Z,81.27
2022-11-25T01:34:32.828Z,81.80
2022-11-25T01:37:00.744Z,82.21
2022-11-25T01:39:32.923Z,81.04
2022-11-25T01:42:01.937Z,79.69
2022-11-25T01:44:32.423Z,79.85
2022-11-25T01:47:09.182Z,80.66
2022-11-25T01:50:05.644Z,81.50
2022-11-25T01:52:37.064Z,81.27
2022-11-25T01:55:12.272Z,81.62
2022-11-25T01:57:44.824Z,82.22
2022-11-25T02:00:13.753Z,81.87
2022-11-25T02:02:45.798Z,81.96
2022-11-25T02:05:17.031Z,81.00
2022-11-25T02:07:47.444Z,81.99
2022-11-25T02:10:23.073Z,81.96
2022-11-25T02:12:51.862Z,82.70
2022-11-25T02:15:21.093Z,80.51
2022-11-25T02:17:49.440Z,81.79
2022-11-25T02:20:22.132Z,81.75
2022-11-25T02:23:33.532Z,82.72
2022-11-25T02:26:02.242Z,84.74
2022-11-25T02:28:31.626Z,84.46
2022-11-25T02:30:59.792Z,86.54
2022-11-25T02:33:28.274Z,85.84
2022-11-25T02:35:59.393Z,86.38
2022-11-25T02:38:43.933Z,86.72
2022-11-25T02:41:18.151Z,87.30
2022-11-25T02:43:47.472Z,86.79
2022-11-25T02:46:21.873Z,87.36
2022-11-25T02:49:09.420Z,86.47
2022-11-25T02:51:40.150Z,85.56
2022-11-25T02:54:09.675Z,85.72
2022-11-25T02:56:37.866Z,86.31
2022-11-25T02:59:05.791Z,86.05
2022-11-25T03:01:35.579Z,85.37
2022-11-25T03:04:06.359Z,86.04
2022-11-25T03:06:34.918Z,85.07
2022-11-25T03:09:03.388Z,83.60
2022-11-25T03:11:54.575Z,84.38
2022-11-25T03:14:22.802Z,83.21
2022-11-25T03:16:51.150Z,85.21
2022-11-25T03:19:19.033Z,84.35
2022-11-25T03:21:47.183Z,83.12
2022-11-25T03:24:15.025Z,84.11
2022-11-25T03:26:42.820Z,83.81
2022-11-25T03:29:11.172Z,84.41
2022-11-25T03:31:38.937Z,84.21
2022-11-25T03:34:09.432Z,84.46
2022-11-25T03:36:37.760Z,84.72
2022-11-25T03:39:06.404Z,84.11
2022-11-25T03:41:34.942Z,82.99
2022-11-25T03:44:03.284Z,85.20
2022-11-25T03:46:31.224Z,84.95
2022-11-25T03:48:59.771Z,83.59
2022-11-25T03:51:28.913Z,82.68
2022-11-25T03:53:57.063Z,83.42
2022-11-25T03:56:25.323Z,83.63
2022-11-25T03:58:53.713Z,82.93
2022-11-25T04:01:22.575Z,82.84
2022-11-25T04:03:51.525Z,82.80
2022-11-25T04:06:21.794Z,83.14
2022-11-25T04:08:50.505Z,83.28
2022-11-25T04:11:18.913Z,82.26
2022-11-25T04:13:48.512Z,82.87
2022-11-25T04:16:26.686Z,82.73
2022-11-25T04:18:54.994Z,82.61
2022-11-25T04:21:22.815Z,82.29
2022-11-25T04:23:50.733Z,80.67
2022-11-25T04:26:19.022Z,79.88
2022-11-25T04:28:46.983Z,78.72
2022-11-25T04:31:15.028Z,79.60
2022-11-25T04:33:45.952Z,79.68
2022-11-25T04:36:16.343Z,81.90
2022-11-25T04:38:44.802Z,81.05
2022-11-25T04:41:12.953Z,81.33
2022-11-25T04:43:40.954Z,79.08
2022-11-25T04:46:15.518Z,78.84
2022-11-25T04:48:44.323Z,79.65
2022-11-25T04:51:12.469Z,81.64
2022-11-25T04:53:40.395Z,80.53
2022-11-25T04:56:09.984Z,80.13
2022-11-25T04:58:57.902Z,77.80
2022-11-25T05:01:26.009Z,80.62
2022-11-25T05:03:57.636Z,80.96
2022-11-25T05:06:26.404Z,79.98
2022-11-25T05:08:55.145Z,79.90
2022-11-25T05:11:23.873Z,80.65
2022-11-25T05:13:52.143Z,76.22
2022-11-25T05:16:20.730Z,78.03
2022-11-25T05:18:48.802Z,78.92
2022-11-25T05:21:17.682Z,78.94
2022-11-25T05:23:45.994Z,78.54
2022-11-25T05:26:14.633Z,79.19
2022-11-25T05:28:42.825Z,79.87
2022-11-25T05:31:11.453Z,79.98
2022-11-25T05:33:39.392Z,77.19
2022-11-25T05:36:07.693Z,74.58
2022-11-25T05:38:36.223Z,78.75
2022-11-25T05:41:06.722Z,77.06
2022-11-25T05:43:35.616Z,78.43
2022-11-25T05:46:08.059Z,74.81
2022-11-25T05:48:36.220Z,78.41
2022-11-25T05:51:05.334Z,81.93
2022-11-25T05:53:33.695Z,80.76
2022-11-25T05:56:05.192Z,80.61
2022-11-25T05:58:34.233Z,79.43
2022-11-25T06:01:07.163Z,78.13
2022-11-25T06:03:37.513Z,79.95
2022-11-25T06:06:06.633Z,80.12
2022-11-25T06:08:35.592Z,80.05
2022-11-25T06:11:12.146Z,80.30
2022-11-25T06:13:40.865Z,78.51
2022-11-25T06:16:14.210Z,78.61
2022-11-25T06:18:42.442Z,81.09
2022-11-25T06:21:13.664Z,79.96
2022-11-25T06:23:41.638Z,78.55
2022-11-25T06:26:20.474Z,79.93
2022-11-25T06:28:48.972Z,80.52
2022-11-25T06:31:19.744Z,80.47
2022-11-25T06:33:50.963Z,80.14
2022-11-25T06:36:20.411Z,79.75
2022-11-25T06:38:51.290Z,81.37
2022-11-25T06:41:19.634Z,83.16
2022-11-25T06:43:47.501Z,83.99
2022-11-25T06:46:23.062Z,85.70
2022-11-25T06:48:55.654Z,86.42
2022-11-25T06:51:24.747Z,85.78
2022-11-25T06:53:53.135Z,82.52
2022-11-25T06:56:26.402Z,77.94
2022-11-25T06:58:55.357Z,72.09
2022-11-25T07:01:25.790Z,69.96
2022-11-25T07:03:56.279Z,68.00
2022-11-25T07:06:24.793Z,67.87
2022-11-25T07:08:52.984Z,66.79
2022-11-25T07:11:20.881Z,65.62
2022-11-25T07:13:52.503Z,65.35
2022-11-25T07:16:20.496Z,63.78
2022-11-25T07:18:48.522Z,65.50
2022-11-25T07:21:19.344Z,68.03
2022-11-25T07:23:47.746Z,71.03
2022-11-25T07:26:27.112Z,71.53
2022-11-25T07:28:58.547Z,75.95
2022-11-25T07:31:35.153Z,75.79
2022-11-25T07:34:06.593Z,75.04
2022-11-25T07:36:35.256Z,74.25
2022-11-25T07:39:06.605Z,71.98
2022-11-25T07:41:34.673Z,75.46
2022-11-25T07:44:05.161Z,72.50
2022-11-25T07:46:38.657Z,71.74
2022-11-25T07:49:09.351Z,73.05
2022-11-25T07:51:50.633Z,73.17
2022-11-25T07:54:18.552Z,72.51
2022-11-25T07:56:48.643Z,72.23
2022-11-25T07:59:18.903Z,71.40
2022-11-25T08:01:49.997Z,69.50
2022-11-25T08:04:20.759Z,74.09
2022-11-25T08:06:51.621Z,74.40
2022-11-25T08:09:23.153Z,72.96
2022-11-25T08:11:51.724Z,73.66
2022-11-25T08:14:20.232Z,75.16
2022-11-25T08:16:48.263Z,75.97
2022-11-25T08:19:17.639Z,74.25
2022-11-25T08:21:48.306Z,76.02
2022-11-25T08:24:21.050Z,73.13
2022-11-25T08:26:50.023Z,75.17
2022-11-25T08:29:19.344Z,73.05
2022-11-25T08:31:47.583Z,74.95
2022-11-25T08:34:25.523Z,73.66
2022-11-25T08:36:54.234Z,72.00
2022-11-25T08:39:50.373Z,69.09
2022-11-25T08:42:11.348Z,67.09
2022-11-25T08:44:39.573Z,60.69
2022-11-25T08:47:07.413Z,60.01
2022-11-25T08:49:40.811Z,56.71
2022-11-25T08:52:10.670Z,55.24
2022-11-25T08:54:38.632Z,53.98
2022-11-25T08:57:06.490Z,57.41
2022-11-25T08:59:35.499Z,58.85
2022-11-25T09:02:04.309Z,56.12
2022-11-25T09:04:32.391Z,57.37
2022-11-25T09:07:01.191Z,57.38
2022-11-25T09:09:29.199Z,55.79
2022-11-25T09:11:57.092Z,56.00
2022-11-25T09:14:25.529Z,58.01
2022-11-25T09:16:53.824Z,57.35
2022-11-25T09:19:21.704Z,59.68
2022-11-25T09:21:50.015Z,59.09
2022-11-25T09:24:18.091Z,58.94
2022-11-25T09:26:46.511Z,54.66
2022-11-25T09:29:14.817Z,53.89
2022-11-25T09:31:43.002Z,52.07
2022-11-25T09:34:11.191Z,52.07
2022-11-25T09:36:39.462Z,51.72
2022-11-25T09:39:08.050Z,50.07
2022-11-25T09:42:16.321Z,48.43
2022-11-25T09:45:31.702Z,48.27
2022-11-25T09:48:11.653Z,47.84
2022-11-25T09:50:44.573Z,46.84
2022-11-25T09:53:42.213Z,44.27
2022-11-25T09:56:56.691Z,42.17
2022-11-25T09:59:38.455Z,41.47
2022-11-25T10:02:40.733Z,38.93
2022-11-25T10:05:22.149Z,38.25
2022-11-25T10:08:00.340Z,39.45
2022-11-25T10:10:33.498Z,39.84
2022-11-25T10:13:01.750Z,41.19
2022-11-25T10:15:33.804Z,39.67
2022-11-25T10:18:07.290Z,37.00
2022-11-25T10:20:40.480Z,40.04
2022-11-25T10:23:32.563Z,37.09
2022-11-25T10:26:13.278Z,36.57
2022-11-25T10:28:48.250Z,36.64
2022-11-25T10:31:27.464Z,37.71
2022-11-25T10:34:00.022Z,39.65
2022-11-25T10:36:34.129Z,35.95
2022-11-25T10:39:11.439Z,39.09
2022-11-25T10:41:56.035Z,37.90
2022-11-25T10:44:30.393Z,35.74
2022-11-25T10:47:13.840Z,36.79
2022-11-25T10:50:14.603Z,35.12
2022-11-25T10:53:07.521Z,36.41
2022-11-25T10:55:36.250Z,35.41
2022-11-25T10:58:42.801Z,38.48
2022-11-25T11:01:21.532Z,36.67
2022-11-25T11:04:04.663Z,35.69
2022-11-25T11:06:38.480Z,38.39
2022-11-25T11:09:07.050Z,43.52
2022-11-25T11:11:47.441Z,39.55
2022-11-25T11:14:20.170Z,39.40
2022-11-25T11:16:56.209Z,41.88
2022-11-25T11:19:27.273Z,47.64
2022-11-25T11:21:56.628Z,47.47
2022-11-25T11:24:32.420Z,50.48
2022-11-25T11:27:18.780Z,48.79
2022-11-25T11:29:47.171Z,49.31
2022-11-25T11:32:24.296Z,48.34
2022-11-25T11:35:08.001Z,46.87
2022-11-25T11:37:44.549Z,47.59
2022-11-25T11:40:39.770Z,47.99
2022-11-25T11:43:13.711Z,54.49
2022-11-25T11:45:57.161Z,55.07
2022-11-25T11:49:02.971Z,56.58
2022-11-25T11:51:56.830Z,58.79
2022-11-25T11:54:37.825Z,57.68
2022-11-25T11:57:18.340Z,56.20
2022-11-25T11:59:54.866Z,56.39
2022-11-25T12:02:36.181Z,55.52
2022-11-25T12:05:10.847Z,51.63
2022-11-25T12:07:41.699Z,51.56
2022-11-25T12:10:22.941Z,52.94
2022-11-25T12:13:13.761Z,55.81
2022-11-25T12:15:53.298Z,51.98
2022-11-25T12:18:39.481Z,53.51
2022-11-25T12:21:42.088Z,52.25
2022-11-25T12:24:23.752Z,53.58
2022-11-25T12:26:57.834Z,52.72
2022-11-25T12:29:47.347Z,57.42
2022-11-25T12:32:37.300Z,56.78
2022-11-25T12:35:21.089Z,59.73
2022-11-25T12:38:09.672Z,58.83
2022-11-25T12:40:58.935Z,59.94
2022-11-25T12:43:53.771Z,62.29
2022-11-25T12:47:09.232Z,60.06
2022-11-25T12:49:45.301Z,60.26
2022-11-25T12:52:30.830Z,59.96
2022-11-25T12:55:25.874Z,60.18
2022-11-25T12:58:10.629Z,60.72
2022-11-25T13:00:57.563Z,60.68
2022-11-25T13:03:41.302Z,61.63
2022-11-25T13:06:32.300Z,60.08
2022-11-25T13:09:27.703Z,62.08
2022-11-25T13:12:18.001Z,61.27
2022-11-25T13:14:55.311Z,60.49
2022-11-25T13:17:24.796Z,61.73
2022-11-25T13:20:45.641Z,59.90
2022-11-25T13:23:22.871Z,61.09
2022-11-25T13:25:52.445Z,63.00
2022-11-25T13:28:39.042Z,63.42
2022-11-25T13:31:31.590Z,63.74
2022-11-25T13:34:09.132Z,64.23
2022-11-25T13:36:49.911Z,65.88
2022-11-25T13:39:38.683Z,66.13
2022-11-25T13:42:25.843Z,64.16
2022-11-25T13:44:56.292Z,62.65
2022-11-25T13:47:43.061Z,59.95
2022-11-25T13:50:21.887Z,62.11
2022-11-25T13:53:00.462Z,61.27
2022-11-25T13:55:38.009Z,62.69
2022-11-25T13:58:41.441Z,62.78
2022-11-25T14:01:29.792Z,61.64
2022-11-25T14:04:00.486Z,63.09
2022-11-25T14:06:57.641Z,62.97
2022-11-25T14:09:50.381Z,63.95
2022-11-25T14:12:33.444Z,64.69
2022-11-25T14:15:17.930Z,64.65
2022-11-25T14:18:02.960Z,69.72
2022-11-25T14:20:36.880Z,66.65
2022-11-25T14:23:22.616Z,68.95
2022-11-25T14:25:53.958Z,69.85
2022-11-25T14:28:21.999Z,70.84
2022-11-25T14:30:55.345Z,69.88
2022-11-25T14:34:00.693Z,69.54
2022-11-25T14:36:34.512Z,67.74
2022-11-25T14:39:06.513Z,68.52
2022-11-25T14:41:42.022Z,69.39
2022-11-25T14:44:15.731Z,68.72
2022-11-25T14:46:54.750Z,69.48
2022-11-25T14:52:17.081Z,72.02
2022-11-25T14:54:46.001Z,68.15
2022-11-25T14:57:13.885Z,69.94
2022-11-25T14:59:45.384Z,72.81
2022-11-25T15:02:31.987Z,75.23
2022-11-25T15:05:15.280Z,76.01
2022-11-25T15:08:08.989Z,73.67
2022-11-25T15:10:52.788Z,75.58
2022-11-25T15:13:32.732Z,74.03
2022-11-25T15:16:15.340Z,75.99
2022-11-25T15:18:55.702Z,78.86
2022-11-25T15:22:14.969Z,82.87
2022-11-25T15:24:48.876Z,78.10
2022-11-25T15:27:25.507Z,75.29
2022-11-25T15:29:55.643Z,73.54
2022-11-25T15:32:26.493Z,72.05
2022-11-25T15:34:56.721Z,73.52
2022-11-25T15:37:24.782Z,74.19
2022-11-25T15:40:31.664Z,74.66
2022-11-25T15:43:01.362Z,75.09
2022-11-25T15:46:06.318Z,77.48
2022-11-25T15:48:45.426Z,77.68
2022-11-25T15:51:20.981Z,76.68
2022-11-25T15:54:17.922Z,76.43
2022-11-25T15:56:51.392Z,78.11
2022-11-25T16:00:01.731Z,84.52
2022-11-25T16:02:41.939Z,86.54
2022-11-25T16:05:13.381Z,85.59
2022-11-25T16:07:50.723Z,83.87
2022-11-25T16:10:20.901Z,82.72
2022-11-25T16:13:22.209Z,79.87
2022-11-25T16:16:08.771Z,82.51
2022-11-25T16:18:42.102Z,83.69
2022-11-25T16:21:14.005Z,82.74
2022-11-25T16:23:48.912Z,82.58
2022-11-25T16:26:25.500Z,85.04
2022-11-25T16:28:56.155Z,85.22
2022-11-25T16:31:28.832Z,86.16
2022-11-25T16:34:01.094Z,84.88
2022-11-25T16:36:29.310Z,82.42
2022-11-25T16:38:57.392Z,87.08
2022-11-25T16:41:26.080Z,85.96
2022-11-25T16:43:58.445Z,84.13
2022-11-25T16:46:28.449Z,84.45
2022-11-25T16:48:56.923Z,85.61
2022-11-25T16:51:26.092Z,83.58
2022-11-25T16:53:54.271Z,85.61
2022-11-25T16:56:27.481Z,84.01
2022-11-25T16:58:55.823Z,83.95
2022-11-25T17:01:26.737Z,82.50
2022-11-25T17:03:54.791Z,84.27
2022-11-25T17:06:25.271Z,79.96
2022-11-25T17:08:53.642Z,82.68
2022-11-25T17:11:26.862Z,82.78
2022-11-25T17:13:55.733Z,83.43
2022-11-25T17:16:26.150Z,79.88
2022-11-25T17:18:56.154Z,80.81
2022-11-25T17:21:29.841Z,82.00
2022-11-25T17:24:01.114Z,82.06
2022-11-25T17:26:40.115Z,81.99
2022-11-25T17:29:12.102Z,81.88
2022-11-25T17:31:40.784Z,82.78
2022-11-25T17:34:13.780Z,83.80
2022-11-25T17:36:43.685Z,80.27
2022-11-25T17:39:13.195Z,79.76
2022-11-25T17:41:46.690Z,78.92
2022-11-25T17:44:26.230Z,78.41
2022-11-25T17:46:57.746Z,79.82
2022-11-25T17:49:25.942Z,83.17
2022-11-25T17:51:54.172Z,84.60
2022-11-25T17:54:22.130Z,87.24
2022-11-25T17:56:52.580Z,84.33
2022-11-25T17:59:26.133Z,83.34
2022-11-25T18:01:56.227Z,81.59
2022-11-25T18:04:27.904Z,79.09
2022-11-25T18:06:55.752Z,83.06
2022-11-25T18:09:23.732Z,85.56
2022-11-25T18:11:57.684Z,83.78
2022-11-25T18:14:34.250Z,83.27
2022-11-25T18:17:06.767Z,79.25
2022-11-25T18:19:35.290Z,80.62
2022-11-25T18:22:13.142Z,82.78
2022-11-25T18:24:41.415Z,83.47
2022-11-25T18:27:36.120Z,82.38
2022-11-25T18:30:06.691Z,85.80
2022-11-25T18:32:34.860Z,85.96
2022-11-25T18:35:02.851Z,82.41
2022-11-25T18:37:30.783Z,83.15
2022-11-25T18:39:59.032Z,83.16
2022-11-25T18:42:27.814Z,80.97
2022-11-25T18:44:56.330Z,83.71
2022-11-25T18:47:24.534Z,81.99
2022-11-25T18:49:56.149Z,83.47
2022-11-25T18:52:25.387Z,83.91
2022-11-25T18:54:53.363Z,83.05
2022-11-25T18:57:21.355Z,82.70
2022-11-25T19:00:10.194Z,84.31
2022-11-25T19:02:37.587Z,86.92
2022-11-25T19:05:27.012Z,86.52
2022-11-25T19:07:56.021Z,84.50
2022-11-25T19:10:27.981Z,86.08
2022-11-25T19:12:58.932Z,87.55
2022-11-25T19:15:27.373Z,85.13
2022-11-25T19:18:00.707Z,87.80
2022-11-25T19:20:30.417Z,86.64
2022-11-25T19:23:12.331Z,87.21
2022-11-25T19:25:40.592Z,86.40
2022-11-25T19:28:13.141Z,87.10
2022-11-25T19:30:41.322Z,86.42
2022-11-25T19:33:16.172Z,86.04
2022-11-25T19:35:44.433Z,87.65
2022-11-25T19:38:19.800Z,86.31
2022-11-25T19:40:49.494Z,86.93
2022-11-25T19:43:17.402Z,86.67
2022-11-25T19:45:45.985Z,87.17
2022-11-25T19:48:19.011Z,88.11
2022-11-25T19:50:49.391Z,87.49
2022-11-25T19:53:19.881Z,86.49
2022-11-25T19:55:48.351Z,87.37
2022-11-25T19:58:16.277Z,86.47
2022-11-25T20:00:46.079Z,87.30
2022-11-25T20:03:19.601Z,86.47
2022-11-25T20:05:49.082Z,89.02
2022-11-25T20:08:20.080Z,87.50
2022-11-25T20:10:48.461Z,85.83
2022-11-25T20:13:16.482Z,83.85
2022-11-25T20:15:45.382Z,85.57
2022-11-25T20:18:18.675Z,84.98
2022-11-25T20:20:49.431Z,85.75
2022-11-25T20:23:46.500Z,86.11
2022-11-25T20:26:36.094Z,88.43
2022-11-25T20:29:12.514Z,84.77
2022-11-25T20:31:40.710Z,88.33
2022-11-25T20:34:08.480Z,89.52
2022-11-25T20:36:36.338Z,89.06
2022-11-25T20:39:04.611Z,89.58
2022-11-25T20:41:33.532Z,87.77
2022-11-25T20:44:01.604Z,87.59
2022-11-25T20:46:30.329Z,89.44
2022-11-25T20:49:00.889Z,88.90
2022-11-25T20:51:29.410Z,89.10
2022-11-25T20:54:01.194Z,86.31
2022-11-25T20:56:30.274Z,87.55
2022-11-25T20:58:58.195Z,86.51
2022-11-25T21:01:26.062Z,89.01
2022-11-25T21:03:54.391Z,88.59
2022-11-25T21:06:27.744Z,87.57
2022-11-25T21:08:58.562Z,87.70
2022-11-25T21:11:28.117Z,86.50
2022-11-25T21:13:56.386Z,86.69
2022-11-25T21:16:25.818Z,85.38
2022-11-25T21:18:53.765Z,83.55
2022-11-25T21:21:30.422Z,84.61
2022-11-25T21:23:58.532Z,84.98
2022-11-25T21:26:27.051Z,81.96
2022-11-25T21:28:55.305Z,84.29
2022-11-25T21:31:24.956Z,83.26
2022-11-25T21:34:00.760Z,86.05
2022-11-25T21:36:30.031Z,86.37
2022-11-25T21:39:07.420Z,84.98
2022-11-25T21:41:35.683Z,85.80
2022-11-25T21:44:05.149Z,85.42
2022-11-25T21:46:33.127Z,84.01
2022-11-25T21:49:01.107Z,83.98
2022-11-25T21:51:29.354Z,86.08
2022-11-25T21:53:57.290Z,88.23
2022-11-25T21:56:34.635Z,87.12
2022-11-25T21:59:05.450Z,92.45
2022-11-25T22:01:33.535Z,91.47
2022-11-25T22:04:01.710Z,91.61
2022-11-25T22:06:32.073Z,93.71
2022-11-25T22:08:59.916Z,91.57
2022-11-25T22:11:33.710Z,93.99
2022-11-25T22:14:04.361Z,95.29
2022-11-25T22:16:34.608Z,98.17
2022-11-25T22:19:02.720Z,98.29
2022-11-25T22:21:30.770Z,94.64
2022-11-25T22:23:59.068Z,95.32
2022-11-25T22:26:34.555Z,98.81
2022-11-25T22:29:02.791Z,99.12
2022-11-25T22:31:30.613Z,96.51
2022-11-25T22:33:58.582Z,97.62
2022-11-25T22:36:36.793Z,99.39
2022-11-25T22:39:17.341Z,98.46
2022-11-25T22:41:52.646Z,94.03
2022-11-25T22:44:43.491Z,96.84
2022-11-25T22:47:36.673Z,99.20
2022-11-25T22:50:07.989Z,95.83
2022-11-25T22:52:36.549Z,96.79
2022-11-25T22:55:17.155Z,95.81
2022-11-25T22:57:45.647Z,92.88
2022-11-25T23:00:21.992Z,93.90
2022-11-25T23:02:51.195Z,95.45
2022-11-25T23:05:33.495Z,94.81
2022-11-25T23:08:19.811Z,95.49
2022-11-25T23:10:48.650Z,94.48
2022-11-25T23:13:18.741Z,95.38
2022-11-25T23:15:55.012Z,92.05
2022-11-25T23:18:37.922Z,94.29
2022-11-25T23:21:10.282Z,92.91
2022-11-25T23:23:38.420Z,92.42
2022-11-25T23:26:06.811Z,91.37
2022-11-25T23:28:34.757Z,92.58
2022-11-25T23:31:03.175Z,92.40
2022-11-25T23:33:43.660Z,93.24
2022-11-25T23:36:34.151Z,89.90
2022-11-25T23:39:03.781Z,90.21
2022-11-25T23:41:33.662Z,91.21
2022-11-25T23:44:26.271Z,91.81
2022-11-25T23:46:57.922Z,92.13
2022-11-25T23:49:33.273Z,93.20
2022-11-25T23:52:07.567Z,90.73
2022-11-25T23:54:42.671Z,93.13
2022-11-25T23:57:22.369Z,91.34
2022-11-25T23:59:50.919Z,90.93
